createdAt,value
2022-12-01T00:02:19.849Z,27.40
2022-12-01T00:04:48.073Z,25.53
2022-12-01T00:07:14.458Z,21.23
2022-12-01T00:09:59.460Z,21.93
2022-12-01T00:12:25.757Z,26.50
2022-12-01T00:14:54.988Z,22.17
2022-12-01T00:17:21.501Z,23.83
2022-12-01T00:19:48.108Z,23.40
2022-12-01T00:22:14.574Z,24.80
2022-12-01T00:24:40.856Z,24.43
2022-12-01T00:27:07.240Z,30.10
2022-12-01T00:29:33.541Z,23.23
2022-12-01T00:31:59.993Z,25.13
2022-12-01T00:34:28.009Z,24.40
2022-12-01T00:36:54.357Z,26.43
2022-12-01T00:39:20.759Z,22.53
2022-12-01T00:41:47.092Z,22.90
2022-12-01T00:44:13.398Z,25.00
2022-12-01T00:46:39.814Z,24.50
2022-12-01T00:49:06.263Z,25.63
2022-12-01T00:51:32.835Z,25.50
2022-12-01T00:53:59.168Z,30.50
2022-12-01T00:56:25.504Z,25.53
2022-12-01T00:58:51.846Z,29.63
2022-12-01T01:01:18.197Z,26.43
2022-12-01T01:03:44.532Z,28.73
2022-12-01T01:06:12.161Z,27.60
2022-12-01T01:08:39.757Z,32.13
2022-12-01T01:11:07.156Z,29.60
2022-12-01T01:13:34.787Z,27.67
2022-12-01T01:16:13.209Z,29.27
2022-12-01T01:18:39.515Z,26.20
2022-12-01T01:21:08.712Z,27.57
2022-12-01T01:23:35.115Z,25.90
2022-12-01T01:26:06.995Z,23.90
2022-12-01T01:28:33.588Z,26.43
2022-12-01T01:31:00.183Z,24.97
2022-12-01T01:33:26.480Z,25.40
2022-12-01T01:35:52.807Z,23.10
2022-12-01T01:38:19.153Z,25.23
2022-12-01T01:40:46.726Z,31.30
2022-12-01T01:43:18.210Z,24.60
2022-12-01T01:45:44.642Z,24.57
2022-12-01T01:48:13.524Z,24.43
2022-12-01T01:50:40.136Z,27.97
2022-12-01T01:53:10.618Z,25.80
2022-12-01T01:55:37.058Z,30.57
2022-12-01T01:58:07.764Z,26.90
2022-12-01T02:00:34.173Z,28.47
2022-12-01T02:03:00.636Z,28.97
2022-12-01T02:05:30.847Z,30.93
2022-12-01T02:07:59.400Z,28.73
2022-12-01T02:10:49.163Z,29.40
2022-12-01T02:13:38.697Z,31.20
2022-12-01T02:16:23.091Z,34.17
2022-12-01T02:18:59.992Z,31.80
2022-12-01T02:21:53.930Z,31.90
2022-12-01T02:24:30.065Z,31.53
2022-12-01T02:27:07.599Z,43.00
2022-12-01T02:30:04.302Z,33.73
2022-12-01T02:32:41.537Z,34.43
2022-12-01T02:35:17.173Z,35.57
2022-12-01T02:37:59.237Z,35.47
2022-12-01T02:40:31.943Z,35.00
2022-12-01T02:43:04.829Z,33.03
2022-12-01T02:45:49.017Z,34.63
2022-12-01T02:48:22.381Z,29.90
2022-12-01T02:50:50.831Z,31.47
2022-12-01T02:53:19.419Z,36.43
2022-12-01T02:55:53.572Z,32.93
2022-12-01T02:58:20.971Z,30.20
2022-12-01T03:01:07.706Z,30.63
2022-12-01T03:03:54.053Z,34.00
2022-12-01T03:06:36.574Z,30.73
2022-12-01T03:09:26.998Z,31.00
2022-12-01T03:12:23.365Z,34.93
2022-12-01T03:15:03.183Z,29.93
2022-12-01T03:17:38.490Z,31.37
2022-12-01T03:20:12.671Z,31.17
2022-12-01T03:22:51.073Z,35.07
2022-12-01T03:25:19.761Z,33.13
2022-12-01T03:28:19.363Z,30.73
2022-12-01T03:30:37.684Z,29.73
2022-12-01T03:33:09.686Z,33.57
2022-12-01T03:35:45.767Z,28.77
2022-12-01T03:38:21.697Z,32.13
2022-12-01T03:40:51.109Z,33.20
2022-12-01T03:43:25.809Z,35.27
2022-12-01T03:46:01.085Z,28.50
2022-12-01T03:48:28.124Z,35.87
2022-12-01T03:51:13.873Z,29.97
2022-12-01T03:54:00.303Z,30.10
2022-12-01T03:56:32.156Z,34.23
2022-12-01T03:59:02.747Z,34.37
2022-12-01T04:01:33.859Z,34.77
2022-12-01T04:04:07.105Z,34.80
2022-12-01T04:06:34.048Z,33.50
2022-12-01T04:09:00.354Z,30.83
2022-12-01T04:11:45.209Z,37.13
2022-12-01T04:14:11.544Z,33.33
2022-12-01T04:16:37.893Z,34.30
2022-12-01T04:19:04.194Z,31.67
2022-12-01T04:21:30.514Z,39.70
2022-12-01T04:24:02.725Z,36.63
2022-12-01T04:26:35.269Z,36.53
2022-12-01T04:29:04.141Z,39.47
2022-12-01T04:31:31.229Z,36.60
2022-12-01T04:33:58.869Z,40.97
2022-12-01T04:36:26.256Z,35.10
2022-12-01T04:38:52.723Z,35.27
2022-12-01T04:41:19.044Z,37.33
2022-12-01T04:43:45.435Z,40.13
2022-12-01T04:46:12.110Z,38.13
2022-12-01T04:48:41.050Z,36.20
2022-12-01T04:51:09.003Z,37.57
2022-12-01T04:53:36.353Z,41.40
2022-12-01T04:56:03.343Z,42.00
2022-12-01T04:58:31.131Z,40.13
2022-12-01T05:01:06.017Z,36.70
2022-12-01T05:03:35.756Z,37.57
2022-12-01T05:06:08.255Z,38.87
2022-12-01T05:08:34.597Z,40.37
2022-12-01T05:11:01.121Z,39.63
2022-12-01T05:13:28.346Z,41.20
2022-12-01T05:16:03.586Z,36.97
2022-12-01T05:18:30.028Z,40.57
2022-12-01T05:20:59.059Z,38.30
2022-12-01T05:23:26.970Z,37.77
2022-12-01T05:25:54.182Z,41.07
2022-12-01T05:28:21.440Z,40.77
2022-12-01T05:30:49.102Z,42.33
2022-12-01T05:33:17.563Z,41.97
2022-12-01T05:35:44.517Z,41.90
2022-12-01T05:38:11.039Z,41.63
2022-12-01T05:40:37.785Z,40.53
2022-12-01T05:43:04.409Z,38.33
2022-12-01T05:45:31.130Z,40.60
2022-12-01T05:47:58.877Z,41.53
2022-12-01T05:50:26.424Z,39.63
2022-12-01T05:52:52.825Z,37.17
2022-12-01T05:55:19.263Z,38.20
2022-12-01T05:57:45.795Z,38.67
2022-12-01T06:00:13.497Z,37.57
2022-12-01T06:02:41.099Z,46.03
2022-12-01T06:05:08.336Z,44.33
2022-12-01T06:07:35.670Z,44.60
2022-12-01T06:10:02.654Z,38.40
2022-12-01T06:12:28.996Z,41.83
2022-12-01T06:14:55.378Z,41.23
2022-12-01T06:17:21.723Z,39.80
2022-12-01T06:19:48.413Z,41.97
2022-12-01T06:22:14.987Z,41.90
2022-12-01T06:24:41.301Z,39.03
2022-12-01T06:27:07.631Z,35.90
2022-12-01T06:29:36.650Z,39.50
2022-12-01T06:32:07.110Z,36.83
2022-12-01T06:34:33.550Z,38.13
2022-12-01T06:36:59.884Z,39.43
2022-12-01T06:39:26.214Z,34.63
2022-12-01T06:41:52.897Z,36.77
2022-12-01T06:44:19.309Z,37.07
2022-12-01T06:46:45.663Z,39.73
2022-12-01T06:49:12.542Z,46.23
2022-12-01T06:51:39.439Z,42.70
2022-12-01T06:54:05.974Z,40.97
2022-12-01T06:56:32.308Z,43.00
2022-12-01T06:58:58.939Z,43.63
2022-12-01T07:01:26.016Z,37.73
2022-12-01T07:03:52.377Z,39.10
2022-12-01T07:06:18.689Z,41.00
2022-12-01T07:08:45.085Z,41.83
2022-12-01T07:11:14.034Z,37.93
2022-12-01T07:13:41.880Z,39.50
2022-12-01T07:16:09.456Z,39.43
2022-12-01T07:18:37.001Z,46.60
2022-12-01T07:21:06.032Z,40.77
2022-12-01T07:23:32.865Z,40.67
2022-12-01T07:26:13.550Z,48.87
2022-12-01T07:28:40.260Z,37.03
2022-12-01T07:31:18.932Z,42.50
2022-12-01T07:33:45.538Z,45.40
2022-12-01T07:36:12.861Z,43.63
2022-12-01T07:38:39.825Z,40.70
2022-12-01T07:41:14.969Z,38.83
2022-12-01T07:43:42.158Z,36.97
2022-12-01T07:46:09.919Z,41.53
2022-12-01T07:48:37.676Z,41.83
2022-12-01T07:51:06.042Z,50.93
2022-12-01T07:53:32.513Z,42.67
2022-12-01T07:56:02.086Z,42.60
2022-12-01T07:58:32.770Z,46.67
2022-12-01T08:01:05.006Z,43.57
2022-12-01T08:03:31.425Z,38.27
2022-12-01T08:05:59.026Z,35.73
2022-12-01T08:08:25.783Z,37.17
2022-12-01T08:10:53.402Z,46.73
2022-12-01T08:13:20.746Z,39.60
2022-12-01T08:15:47.211Z,37.83
2022-12-01T08:18:13.581Z,37.53
2022-12-01T08:20:39.858Z,36.93
2022-12-01T08:23:08.022Z,35.70
2022-12-01T08:25:34.413Z,32.23
2022-12-01T08:28:01.581Z,32.60
2022-12-01T08:30:28.586Z,32.33
2022-12-01T08:32:56.681Z,28.43
2022-12-01T08:35:24.054Z,30.20
2022-12-01T08:37:54.361Z,33.53
2022-12-01T08:40:21.766Z,35.90
2022-12-01T08:42:48.096Z,34.53
2022-12-01T08:45:14.647Z,25.53
2022-12-01T08:47:41.009Z,29.87
2022-12-01T08:50:07.867Z,29.90
2022-12-01T08:52:35.129Z,28.67
2022-12-01T08:55:01.969Z,30.63
2022-12-01T08:57:31.464Z,28.90
2022-12-01T08:59:57.826Z,27.60
2022-12-01T09:02:24.740Z,25.83
2022-12-01T09:04:51.382Z,26.53
2022-12-01T09:07:24.591Z,28.37
2022-12-01T09:09:53.010Z,26.37
2022-12-01T09:12:19.690Z,25.73
2022-12-01T09:14:48.259Z,25.90
2022-12-01T09:17:16.161Z,24.80
2022-12-01T09:19:43.843Z,24.47
2022-12-01T09:22:11.751Z,27.07
2022-12-01T09:24:38.418Z,28.07
2022-12-01T09:27:05.323Z,24.63
2022-12-01T09:29:32.300Z,27.53
2022-12-01T09:32:00.288Z,29.80
2022-12-01T09:34:28.844Z,25.50
2022-12-01T09:36:57.535Z,30.73
2022-12-01T09:39:24.096Z,24.10
2022-12-01T09:41:55.864Z,33.03
2022-12-01T09:44:35.906Z,29.17
2022-12-01T09:47:19.119Z,26.40
2022-12-01T09:50:03.439Z,25.23
2022-12-01T09:52:39.793Z,28.80
2022-12-01T09:55:12.888Z,26.60
2022-12-01T09:57:40.769Z,25.77
2022-12-01T10:00:15.164Z,24.17
2022-12-01T10:02:52.232Z,25.13
2022-12-01T10:05:20.934Z,25.03
2022-12-01T10:07:56.328Z,27.40
2022-12-01T10:10:34.464Z,23.70
2022-12-01T10:13:00.768Z,24.73
2022-12-01T10:15:46.517Z,26.70
2022-12-01T10:18:20.824Z,27.70
2022-12-01T10:21:11.845Z,26.33
2022-12-01T10:23:56.982Z,25.50
2022-12-01T10:26:50.055Z,24.13
2022-12-01T10:29:47.217Z,27.77
2022-12-01T10:32:17.937Z,26.67
2022-12-01T10:34:46.603Z,27.17
2022-12-01T10:37:19.072Z,23.60
2022-12-01T10:39:48.686Z,25.23
2022-12-01T10:42:39.653Z,26.03
2022-12-01T10:45:14.164Z,29.20
2022-12-01T10:48:15.634Z,25.60
2022-12-01T10:50:47.533Z,24.53
2022-12-01T10:53:22.967Z,24.90
2022-12-01T10:56:03.585Z,24.40
2022-12-01T10:58:33.604Z,28.97
2022-12-01T11:01:05.777Z,25.10
2022-12-01T11:03:34.931Z,23.57
2022-12-01T11:06:05.662Z,25.43
2022-12-01T11:08:38.848Z,25.27
2022-12-01T11:11:05.213Z,22.90
2022-12-01T11:13:35.539Z,23.90
2022-12-01T11:16:05.854Z,23.70
2022-12-01T11:18:37.992Z,23.73
2022-12-01T11:21:10.395Z,30.60
2022-12-01T11:23:50.694Z,24.43
2022-12-01T11:26:25.514Z,27.30
2022-12-01T11:28:53.326Z,22.33
2022-12-01T11:31:21.652Z,24.80
2022-12-01T11:33:53.556Z,22.20
2022-12-01T11:36:42.629Z,24.40
2022-12-01T11:39:23.487Z,22.77
2022-12-01T11:41:55.880Z,22.17
2022-12-01T11:44:49.732Z,25.23
2022-12-01T11:47:24.813Z,26.80
2022-12-01T11:50:13.098Z,32.67
2022-12-01T11:52:49.111Z,24.50
2022-12-01T11:55:15.484Z,27.07
2022-12-01T11:57:48.033Z,22.97
2022-12-01T12:00:23.662Z,28.17
2022-12-01T12:03:18.723Z,25.87
2022-12-01T12:05:51.450Z,23.60
2022-12-01T12:08:26.446Z,24.17
2022-12-01T12:11:12.025Z,24.70
2022-12-01T12:14:00.538Z,25.83
2022-12-01T12:19:25.418Z,24.90
2022-12-01T12:22:00.430Z,21.77
2022-12-01T12:24:37.266Z,28.57
2022-12-01T12:27:18.296Z,25.23
2022-12-01T12:30:01.887Z,23.47
2022-12-01T12:33:17.738Z,23.77
2022-12-01T12:36:07.406Z,23.27
2022-12-01T12:39:16.437Z,25.17
2022-12-01T12:41:50.331Z,26.67
2022-12-01T12:44:49.546Z,23.70
2022-12-01T12:47:49.585Z,26.33
2022-12-01T12:50:41.608Z,24.47
2022-12-01T12:53:17.798Z,26.37
2022-12-01T12:55:48.975Z,26.67
2022-12-01T12:58:24.137Z,25.87
2022-12-01T13:00:57.905Z,25.63
2022-12-01T13:04:15.593Z,25.17
2022-12-01T13:06:48.750Z,24.33
2022-12-01T13:09:26.142Z,24.50
2022-12-01T13:12:04.603Z,27.10
2022-12-01T13:14:38.439Z,25.27
2022-12-01T13:17:30.661Z,27.90
2022-12-01T13:19:57.068Z,22.13
2022-12-01T13:22:30.763Z,25.80
2022-12-01T13:24:57.148Z,25.30
2022-12-01T13:27:27.141Z,24.40
2022-12-01T13:29:55.879Z,29.97
2022-12-01T13:32:34.900Z,23.10
2022-12-01T13:35:06.239Z,24.97
2022-12-01T13:37:38.177Z,25.27
2022-12-01T13:40:19.957Z,26.17
2022-12-01T13:43:10.360Z,25.73
2022-12-01T13:45:39.841Z,21.43
2022-12-01T13:48:25.010Z,26.07
2022-12-01T13:51:02.705Z,20.13
2022-12-01T13:53:30.358Z,22.53
2022-12-01T13:56:03.775Z,22.03
2022-12-01T13:58:32.996Z,24.27
2022-12-01T14:01:25.796Z,22.17
2022-12-01T14:03:57.953Z,17.70
2022-12-01T14:06:38.417Z,20.40
2022-12-01T14:09:16.581Z,20.23
2022-12-01T14:11:56.841Z,24.83
2022-12-01T14:14:26.401Z,17.80
2022-12-01T14:16:55.347Z,22.47
2022-12-01T14:19:43.308Z,19.57
2022-12-01T14:22:40.436Z,21.57
2022-12-01T14:25:22.445Z,20.50
2022-12-01T14:27:52.715Z,23.60
2022-12-01T14:30:46.769Z,21.77
2022-12-01T14:33:51.192Z,22.07
2022-12-01T14:36:17.526Z,21.37
2022-12-01T14:38:46.069Z,23.97
2022-12-01T14:41:27.243Z,20.33
2022-12-01T14:44:03.644Z,20.77
2022-12-01T14:46:39.500Z,19.90
2022-12-01T14:49:11.221Z,24.50
2022-12-01T14:51:41.896Z,23.30
2022-12-01T14:54:17.867Z,23.07
2022-12-01T14:56:47.908Z,23.60
2022-12-01T14:59:21.792Z,25.53
2022-12-01T15:01:51.522Z,21.00
2022-12-01T15:04:18.163Z,23.17
2022-12-01T15:06:44.996Z,24.57
2022-12-01T15:09:34.460Z,26.60
2022-12-01T15:12:07.086Z,27.00
2022-12-01T15:14:36.460Z,22.13
2022-12-01T15:17:05.367Z,24.17
2022-12-01T15:19:40.145Z,23.97
2022-12-01T15:22:13.742Z,25.37
2022-12-01T15:24:40.692Z,25.93
2022-12-01T15:27:25.147Z,21.43
2022-12-01T15:29:52.309Z,24.50
2022-12-01T15:32:21.495Z,24.47
2022-12-01T15:34:52.136Z,30.13
2022-12-01T15:37:24.492Z,23.03
2022-12-01T15:43:02.846Z,25.30
2022-12-01T15:45:29.250Z,25.10
2022-12-01T15:47:55.792Z,27.90
2022-12-01T15:50:42.687Z,21.67
2022-12-01T15:53:25.753Z,23.67
2022-12-01T15:55:58.611Z,23.37
2022-12-01T15:58:30.144Z,23.10
2022-12-01T16:01:02.258Z,24.20
2022-12-01T16:03:29.028Z,22.93
2022-12-01T16:06:00.063Z,24.73
2022-12-01T16:08:28.080Z,23.57
2022-12-01T16:11:13.984Z,21.63
2022-12-01T16:13:59.643Z,22.83
2022-12-01T16:16:46.304Z,22.67
2022-12-01T16:19:12.619Z,24.13
2022-12-01T16:21:51.860Z,20.63
2022-12-01T16:24:22.496Z,21.97
2022-12-01T16:26:55.892Z,22.00
2022-12-01T16:29:24.577Z,22.50
2022-12-01T16:32:18.813Z,23.20
2022-12-01T16:34:46.237Z,24.17
2022-12-01T16:37:13.696Z,22.37
2022-12-01T16:39:40.041Z,22.73
2022-12-01T16:42:06.629Z,22.10
2022-12-01T16:44:33.034Z,23.80
2022-12-01T16:46:59.367Z,25.20
2022-12-01T16:49:25.726Z,22.80
2022-12-01T16:51:56.801Z,23.90
2022-12-01T16:54:23.736Z,22.40
2022-12-01T16:56:50.878Z,22.87
2022-12-01T16:59:17.171Z,24.00
2022-12-01T17:01:43.555Z,20.77
2022-12-01T17:04:09.897Z,23.63
2022-12-01T17:06:38.209Z,23.30
2022-12-01T17:09:04.981Z,23.33
2022-12-01T17:11:32.077Z,24.73
2022-12-01T17:13:58.406Z,22.60
2022-12-01T17:16:24.784Z,23.23
2022-12-01T17:18:51.181Z,25.07
2022-12-01T17:21:17.558Z,21.57
2022-12-01T17:23:43.934Z,22.43
2022-12-01T17:26:14.923Z,23.57
2022-12-01T17:28:41.322Z,23.70
2022-12-01T17:31:08.999Z,21.30
2022-12-01T17:33:35.925Z,23.03
2022-12-01T17:36:05.083Z,23.27
2022-12-01T17:38:35.930Z,22.30
2022-12-01T17:41:03.382Z,24.60
2022-12-01T17:43:29.841Z,23.53
2022-12-01T17:45:56.359Z,22.40
2022-12-01T17:48:22.705Z,24.97
2022-12-01T17:50:49.021Z,24.03
2022-12-01T17:53:15.329Z,24.40
2022-12-01T17:55:41.727Z,24.60
2022-12-01T17:58:08.069Z,26.60
2022-12-01T18:00:34.382Z,22.73
2022-12-01T18:03:00.765Z,25.30
2022-12-01T18:05:29.186Z,21.40
2022-12-01T18:07:55.710Z,24.10
2022-12-01T18:10:22.027Z,25.83
2022-12-01T18:12:48.312Z,25.10
2022-12-01T18:15:14.693Z,27.47
2022-12-01T18:17:40.977Z,26.50
2022-12-01T18:20:08.233Z,23.23
2022-12-01T18:22:34.546Z,28.03
2022-12-01T18:25:00.884Z,25.87
2022-12-01T18:27:27.222Z,25.50
2022-12-01T18:29:53.576Z,24.47
2022-12-01T18:32:19.957Z,27.30
2022-12-01T18:34:46.610Z,32.00
2022-12-01T18:37:13.213Z,23.03
2022-12-01T18:39:39.550Z,25.40
2022-12-01T18:42:06.062Z,23.97
2022-12-01T18:44:32.453Z,26.07
2022-12-01T18:46:59.052Z,26.90
2022-12-01T18:49:25.575Z,26.17
2022-12-01T18:51:51.993Z,24.73
2022-12-01T18:54:18.389Z,26.43
2022-12-01T18:56:44.947Z,24.27
2022-12-01T18:59:12.828Z,26.57
2022-12-01T19:01:43.885Z,27.43
2022-12-01T19:04:10.881Z,26.63
2022-12-01T19:06:39.478Z,27.00
2022-12-01T19:09:08.930Z,30.67
2022-12-01T19:11:35.804Z,28.40
2022-12-01T19:14:03.406Z,31.57
2022-12-01T19:16:30.991Z,28.70
2022-12-01T19:19:00.084Z,29.30
2022-12-01T19:21:26.515Z,27.33
2022-12-01T19:23:53.311Z,25.63
2022-12-01T19:26:21.757Z,30.00
2022-12-01T19:28:48.959Z,26.17
2022-12-01T19:31:18.472Z,27.93
2022-12-01T19:33:45.240Z,27.13
2022-12-01T19:36:14.258Z,28.43
2022-12-01T19:38:41.503Z,31.57
2022-12-01T19:41:09.459Z,32.40
2022-12-01T19:43:36.988Z,28.60
2022-12-01T19:46:08.592Z,34.80
2022-12-01T19:48:35.521Z,33.63
2022-12-01T19:51:01.980Z,28.57
2022-12-01T19:53:33.271Z,35.27
2022-12-01T19:56:04.875Z,31.73
2022-12-01T19:58:34.529Z,29.07
2022-12-01T20:01:05.285Z,32.40
2022-12-01T20:03:31.674Z,37.37
2022-12-01T20:06:06.365Z,34.03
2022-12-01T20:08:35.942Z,33.83
2022-12-01T20:11:04.097Z,34.57
2022-12-01T20:13:37.953Z,38.90
2022-12-01T20:16:08.016Z,32.27
2022-12-01T20:18:34.759Z,34.33
2022-12-01T20:21:10.188Z,40.30
2022-12-01T20:23:37.097Z,36.87
2022-12-01T20:26:07.440Z,37.23
2022-12-01T20:28:35.229Z,39.77
2022-12-01T20:31:02.456Z,41.37
2022-12-01T20:33:29.112Z,38.80
2022-12-01T20:35:55.557Z,33.47
2022-12-01T20:38:27.226Z,36.40
2022-12-01T20:40:54.149Z,35.90
2022-12-01T20:43:22.004Z,35.97
2022-12-01T20:45:48.466Z,37.13
2022-12-01T20:48:15.226Z,35.03
2022-12-01T20:50:41.733Z,37.83
2022-12-01T20:53:08.167Z,34.77
2022-12-01T20:55:36.658Z,36.83
2022-12-01T20:58:04.814Z,42.13
2022-12-01T21:00:31.850Z,36.87
2022-12-01T21:02:58.242Z,37.60
2022-12-01T21:05:25.461Z,33.83
2022-12-01T21:07:51.919Z,35.30
2022-12-01T21:10:20.278Z,36.00
2022-12-01T21:13:09.585Z,38.60
2022-12-01T21:15:46.348Z,33.93
2022-12-01T21:18:23.074Z,32.87
2022-12-01T21:20:55.117Z,34.80
2022-12-01T21:23:21.443Z,39.77
2022-12-01T21:25:48.964Z,34.87
2022-12-01T21:28:19.826Z,35.33
2022-12-01T21:30:47.841Z,37.47
2022-12-01T21:33:32.072Z,37.33
2022-12-01T21:36:00.732Z,33.50
2022-12-01T21:38:27.763Z,36.67
2022-12-01T21:40:54.463Z,31.87
2022-12-01T21:43:23.240Z,33.17
2022-12-01T21:46:00.255Z,32.80
2022-12-01T21:48:34.958Z,34.10
2022-12-01T21:51:06.954Z,34.10
2022-12-01T21:53:38.351Z,35.73
2022-12-01T21:56:04.878Z,36.97
2022-12-01T21:58:36.075Z,37.63
2022-12-01T22:01:14.935Z,44.90
2022-12-01T22:03:45.160Z,34.77
2022-12-01T22:06:32.203Z,33.90
2022-12-01T22:09:02.234Z,36.60
2022-12-01T22:11:30.418Z,36.47
2022-12-01T22:14:05.003Z,38.53
2022-12-01T22:16:33.749Z,32.53
2022-12-01T22:19:08.359Z,35.07
2022-12-01T22:21:39.233Z,34.13
2022-12-01T22:24:19.930Z,31.63
2022-12-01T22:26:49.330Z,32.33
2022-12-01T22:29:35.787Z,35.20
2022-12-01T22:32:26.392Z,37.50
2022-12-01T22:34:57.544Z,36.83
2022-12-01T22:37:47.002Z,34.30
2022-12-01T22:40:36.465Z,32.70
2022-12-01T22:43:18.120Z,33.43
2022-12-01T22:45:59.452Z,36.77
2022-12-01T22:48:25.799Z,34.77
2022-12-01T22:50:52.269Z,30.80
2022-12-01T22:53:24.662Z,35.27
2022-12-01T22:55:55.122Z,35.67
2022-12-01T22:58:27.548Z,36.70
2022-12-01T23:00:56.899Z,31.70
2022-12-01T23:03:24.368Z,36.30
2022-12-01T23:05:56.007Z,29.93
2022-12-01T23:08:23.656Z,33.47
2022-12-01T23:10:50.772Z,32.90
2022-12-01T23:13:22.863Z,32.50
2022-12-01T23:15:51.343Z,35.83
2022-12-01T23:18:23.778Z,36.57
2022-12-01T23:20:54.214Z,37.27
2022-12-01T23:23:31.562Z,32.03
2022-12-01T23:25:58.780Z,31.50
2022-12-01T23:28:25.117Z,36.77
2022-12-01T23:30:55.597Z,32.80
2022-12-01T23:33:24.637Z,30.10
2022-12-01T23:35:55.919Z,33.60
2022-12-01T23:38:26.090Z,30.33
2022-12-01T23:40:55.841Z,37.23
2022-12-01T23:43:28.573Z,36.17
2022-12-01T23:46:17.846Z,35.87
2022-12-01T23:48:52.333Z,34.50
2022-12-01T23:51:24.403Z,36.97
2022-12-01T23:53:53.294Z,35.70
2022-12-01T23:56:21.796Z,36.20
2022-12-01T23:58:48.877Z,38.43
